sensor_id;sensor_type;location;lat;lon;timestamp;P1;durP1;ratioP1;P2;durP2;ratioP2
70342;SDS011;57767;42.068;24.752;2024-01-25T00:00:10;24.00;;;17.05;;
70342;SDS011;57767;42.068;24.752;2024-01-25T00:01:12;27.40;;;18.20;;
70342;SDS011;57767;42.068;24.752;2024-01-25T00:02:14;23.52;;;16.83;;
70342;SDS011;57767;42.068;24.752;2024-01-25T00:03:16;22.85;;;16.15;;
70342;SDS011;57767;42.068;24.752;2024-01-25T00:04:17;24.13;;;16.25;;
70342;SDS011;57767;42.068;24.752;2024-01-25T00:05:19;25.98;;;16.85;;
70342;SDS011;57767;42.068;24.752;2024-01-25T00:06:21;25.60;;;18.13;;
70342;SDS011;57767;42.068;24.752;2024-01-25T00:07:23;23.35;;;16.20;;
70342;SDS011;57767;42.068;24.752;2024-01-25T00:08:24;24.98;;;17.25;;
70342;SDS011;57767;42.068;24.752;2024-01-25T00:09:26;25.17;;;17.50;;
70342;SDS011;57767;42.068;24.752;2024-01-25T00:10:28;23.30;;;15.82;;
70342;SDS011;57767;42.068;24.752;2024-01-25T00:11:29;24.33;;;16.98;;
70342;SDS011;57767;42.068;24.752;2024-01-25T00:12:32;29.30;;;18.23;;
70342;SDS011;57767;42.068;24.752;2024-01-25T00:13:34;27.58;;;17.90;;
70342;SDS011;57767;42.068;24.752;2024-01-25T00:14:36;30.25;;;18.27;;
70342;SDS011;57767;42.068;24.752;2024-01-25T00:15:37;28.00;;;18.67;;
70342;SDS011;57767;42.068;24.752;2024-01-25T00:16:42;30.83;;;19.20;;
70342;SDS011;57767;42.068;24.752;2024-01-25T00:17:44;33.33;;;21.02;;
70342;SDS011;57767;42.068;24.752;2024-01-25T00:18:45;34.65;;;22.52;;
70342;SDS011;57767;42.068;24.752;2024-01-25T00:19:47;32.58;;;20.05;;
70342;SDS011;57767;42.068;24.752;2024-01-25T00:20:50;27.40;;;18.83;;
70342;SDS011;57767;42.068;24.752;2024-01-25T00:21:53;28.13;;;17.50;;
70342;SDS011;57767;42.068;24.752;2024-01-25T00:22:54;25.17;;;18.02;;
70342;SDS011;57767;42.068;24.752;2024-01-25T00:23:56;26.58;;;17.27;;
70342;SDS011;57767;42.068;24.752;2024-01-25T00:24:58;26.85;;;17.17;;
70342;SDS011;57767;42.068;24.752;2024-01-25T00:26:00;26.33;;;16.55;;
70342;SDS011;57767;42.068;24.752;2024-01-25T00:27:01;28.90;;;17.70;;
70342;SDS011;57767;42.068;24.752;2024-01-25T00:28:04;27.83;;;17.33;;
70342;SDS011;57767;42.068;24.752;2024-01-25T00:29:06;35.63;;;20.50;;
70342;SDS011;57767;42.068;24.752;2024-01-25T00:30:07;41.85;;;25.48;;
70342;SDS011;57767;42.068;24.752;2024-01-25T00:31:09;39.60;;;24.48;;
70342;SDS011;57767;42.068;24.752;2024-01-25T00:32:11;34.85;;;22.42;;
70342;SDS011;57767;42.068;24.752;2024-01-25T00:33:13;29.55;;;19.10;;
70342;SDS011;57767;42.068;24.752;2024-01-25T00:34:14;26.92;;;18.35;;
70342;SDS011;57767;42.068;24.752;2024-01-25T00:35:16;27.90;;;18.13;;
70342;SDS011;57767;42.068;24.752;2024-01-25T00:36:19;22.85;;;16.88;;
70342;SDS011;57767;42.068;24.752;2024-01-25T00:37:21;25.98;;;17.40;;
70342;SDS011;57767;42.068;24.752;2024-01-25T00:38:23;22.35;;;16.95;;
70342;SDS011;57767;42.068;24.752;2024-01-25T00:39:25;22.42;;;16.67;;
70342;SDS011;57767;42.068;24.752;2024-01-25T00:40:27;22.58;;;16.35;;
70342;SDS011;57767;42.068;24.752;2024-01-25T00:41:29;22.25;;;15.82;;
70342;SDS011;57767;42.068;24.752;2024-01-25T00:42:35;23.38;;;15.90;;
70342;SDS011;57767;42.068;24.752;2024-01-25T00:43:44;23.67;;;16.27;;
70342;SDS011;57767;42.068;24.752;2024-01-25T00:44:46;22.77;;;16.40;;
70342;SDS011;57767;42.068;24.752;2024-01-25T00:45:48;22.83;;;15.77;;
70342;SDS011;57767;42.068;24.752;2024-01-25T00:46:50;18.92;;;14.10;;
70342;SDS011;57767;42.068;24.752;2024-01-25T00:47:54;21.15;;;15.00;;
70342;SDS011;57767;42.068;24.752;2024-01-25T00:48:57;19.58;;;14.85;;
70342;SDS011;57767;42.068;24.752;2024-01-25T00:49:59;20.75;;;14.82;;
70342;SDS011;57767;42.068;24.752;2024-01-25T00:51:01;23.98;;;15.25;;
70342;SDS011;57767;42.068;24.752;2024-01-25T00:52:08;23.70;;;15.43;;
70342;SDS011;57767;42.068;24.752;2024-01-25T00:53:10;20.08;;;14.98;;
70342;SDS011;57767;42.068;24.752;2024-01-25T00:54:12;18.58;;;13.93;;
70342;SDS011;57767;42.068;24.752;2024-01-25T00:55:15;20.58;;;14.82;;
70342;SDS011;57767;42.068;24.752;2024-01-25T00:56:17;17.92;;;13.77;;
70342;SDS011;57767;42.068;24.752;2024-01-25T00:57:19;23.80;;;14.32;;
70342;SDS011;57767;42.068;24.752;2024-01-25T00:58:21;28.58;;;18.60;;
70342;SDS011;57767;42.068;24.752;2024-01-25T00:59:23;23.08;;;15.20;;
70342;SDS011;57767;42.068;24.752;2024-01-25T01:00:25;19.02;;;13.18;;
70342;SDS011;57767;42.068;24.752;2024-01-25T01:01:27;18.67;;;14.45;;
70342;SDS011;57767;42.068;24.752;2024-01-25T01:02:29;19.85;;;14.95;;
70342;SDS011;57767;42.068;24.752;2024-01-25T01:03:36;30.38;;;20.15;;
70342;SDS011;57767;42.068;24.752;2024-01-25T01:04:38;25.05;;;16.50;;
70342;SDS011;57767;42.068;24.752;2024-01-25T01:05:48;14.68;;;10.45;;
70342;SDS011;57767;42.068;24.752;2024-01-25T01:06:50;14.98;;;9.45;;
70342;SDS011;57767;42.068;24.752;2024-01-25T01:07:52;7.88;;;4.88;;
70342;SDS011;57767;42.068;24.752;2024-01-25T01:08:54;6.53;;;2.80;;
70342;SDS011;57767;42.068;24.752;2024-01-25T01:09:56;2.20;;;1.77;;
70342;SDS011;57767;42.068;24.752;2024-01-25T01:10:58;1.80;;;1.50;;
70342;SDS011;57767;42.068;24.752;2024-01-25T01:11:59;1.70;;;1.20;;
70342;SDS011;57767;42.068;24.752;2024-01-25T01:13:01;1.75;;;1.17;;
70342;SDS011;57767;42.068;24.752;2024-01-25T01:14:02;3.13;;;1.30;;
70342;SDS011;57767;42.068;24.752;2024-01-25T01:15:04;1.80;;;1.30;;
70342;SDS011;57767;42.068;24.752;2024-01-25T01:16:06;1.35;;;1.20;;
70342;SDS011;57767;42.068;24.752;2024-01-25T01:17:08;1.88;;;0.98;;
70342;SDS011;57767;42.068;24.752;2024-01-25T01:18:09;1.48;;;0.95;;
70342;SDS011;57767;42.068;24.752;2024-01-25T01:19:11;3.03;;;1.20;;
70342;SDS011;57767;42.068;24.752;2024-01-25T01:20:13;1.55;;;0.90;;
70342;SDS011;57767;42.068;24.752;2024-01-25T01:21:15;1.35;;;1.13;;
70342;SDS011;57767;42.068;24.752;2024-01-25T01:22:17;1.00;;;0.88;;
70342;SDS011;57767;42.068;24.752;2024-01-25T01:23:18;0.77;;;0.73;;
70342;SDS011;57767;42.068;24.752;2024-01-25T01:24:20;1.85;;;0.85;;
70342;SDS011;57767;42.068;24.752;2024-01-25T01:25:21;1.10;;;0.90;;
70342;SDS011;57767;42.068;24.752;2024-01-25T01:26:23;1.70;;;1.00;;
70342;SDS011;57767;42.068;24.752;2024-01-25T01:27:25;0.77;;;0.73;;
70342;SDS011;57767;42.068;24.752;2024-01-25T01:28:27;1.40;;;0.90;;
70342;SDS011;57767;42.068;24.752;2024-01-25T01:29:28;1.67;;;0.90;;
70342;SDS011;57767;42.068;24.752;2024-01-25T01:30:31;1.80;;;1.20;;
70342;SDS011;57767;42.068;24.752;2024-01-25T01:31:33;3.72;;;1.85;;
70342;SDS011;57767;42.068;24.752;2024-01-25T01:32:34;19.10;;;8.45;;
70342;SDS011;57767;42.068;24.752;2024-01-25T01:33:36;2.25;;;1.23;;
70342;SDS011;57767;42.068;24.752;2024-01-25T01:34:38;0.90;;;0.80;;
70342;SDS011;57767;42.068;24.752;2024-01-25T01:35:40;1.15;;;0.88;;
70342;SDS011;57767;42.068;24.752;2024-01-25T01:36:42;1.08;;;0.98;;
70342;SDS011;57767;42.068;24.752;2024-01-25T01:37:43;1.38;;;0.93;;
70342;SDS011;57767;42.068;24.752;2024-01-25T01:38:45;1.60;;;0.77;;
70342;SDS011;57767;42.068;24.752;2024-01-25T01:39:47;1.05;;;0.90;;
70342;SDS011;57767;42.068;24.752;2024-01-25T01:40:48;0.60;;;0.60;;
70342;SDS011;57767;42.068;24.752;2024-01-25T01:41:50;3.05;;;0.90;;
70342;SDS011;57767;42.068;24.752;2024-01-25T01:42:58;1.85;;;0.90;;
70342;SDS011;57767;42.068;24.752;2024-01-25T01:44:00;1.23;;;0.60;;
70342;SDS011;57767;42.068;24.752;2024-01-25T01:45:02;2.05;;;0.80;;
70342;SDS011;57767;42.068;24.752;2024-01-25T01:46:07;0.70;;;0.60;;
70342;SDS011;57767;42.068;24.752;2024-01-25T01:47:12;0.82;;;0.57;;
70342;SDS011;57767;42.068;24.752;2024-01-25T01:48:15;1.02;;;0.68;;
70342;SDS011;57767;42.068;24.752;2024-01-25T01:49:17;2.65;;;0.82;;
70342;SDS011;57767;42.068;24.752;2024-01-25T01:50:20;0.60;;;0.60;;
70342;SDS011;57767;42.068;24.752;2024-01-25T01:51:22;0.40;;;0.40;;
70342;SDS011;57767;42.068;24.752;2024-01-25T01:52:24;1.58;;;0.80;;
70342;SDS011;57767;42.068;24.752;2024-01-25T01:53:25;0.70;;;0.70;;
70342;SDS011;57767;42.068;24.752;2024-01-25T01:54:27;1.40;;;0.82;;
70342;SDS011;57767;42.068;24.752;2024-01-25T01:55:30;0.95;;;0.70;;
70342;SDS011;57767;42.068;24.752;2024-01-25T01:56:33;1.23;;;0.75;;
70342;SDS011;57767;42.068;24.752;2024-01-25T01:57:35;1.30;;;1.10;;
70342;SDS011;57767;42.068;24.752;2024-01-25T01:58:38;1.10;;;1.00;;
70342;SDS011;57767;42.068;24.752;2024-01-25T01:59:40;2.92;;;1.00;;
70342;SDS011;57767;42.068;24.752;2024-01-25T02:00:42;1.10;;;1.00;;
70342;SDS011;57767;42.068;24.752;2024-01-25T02:01:46;0.98;;;0.88;;
70342;SDS011;57767;42.068;24.752;2024-01-25T02:02:47;2.42;;;1.15;;
70342;SDS011;57767;42.068;24.752;2024-01-25T02:03:49;1.10;;;1.00;;
70342;SDS011;57767;42.068;24.752;2024-01-25T02:04:51;1.35;;;1.00;;
70342;SDS011;57767;42.068;24.752;2024-01-25T02:05:53;2.92;;;1.00;;
70342;SDS011;57767;42.068;24.752;2024-01-25T02:06:55;1.88;;;1.38;;
70342;SDS011;57767;42.068;24.752;2024-01-25T02:07:57;81.38;;;29.20;;
70342;SDS011;57767;42.068;24.752;2024-01-25T02:08:59;8.20;;;3.83;;
70342;SDS011;57767;42.068;24.752;2024-01-25T02:10:00;2.72;;;1.70;;
70342;SDS011;57767;42.068;24.752;2024-01-25T02:11:02;2.30;;;1.20;;
70342;SDS011;57767;42.068;24.752;2024-01-25T02:12:04;1.42;;;1.02;;
70342;SDS011;57767;42.068;24.752;2024-01-25T02:13:06;1.30;;;1.20;;
70342;SDS011;57767;42.068;24.752;2024-01-25T02:14:08;1.55;;;1.10;;
70342;SDS011;57767;42.068;24.752;2024-01-25T02:15:12;1.95;;;1.20;;
70342;SDS011;57767;42.068;24.752;2024-01-25T02:16:14;1.80;;;1.10;;
70342;SDS011;57767;42.068;24.752;2024-01-25T02:17:16;1.10;;;0.90;;
70342;SDS011;57767;42.068;24.752;2024-01-25T02:18:18;2.47;;;0.95;;
70342;SDS011;57767;42.068;24.752;2024-01-25T02:19:20;1.33;;;0.95;;
70342;SDS011;57767;42.068;24.752;2024-01-25T02:20:22;2.78;;;1.50;;
70342;SDS011;57767;42.068;24.752;2024-01-25T02:21:23;2.58;;;1.70;;
70342;SDS011;57767;42.068;24.752;2024-01-25T02:22:25;3.05;;;1.40;;
70342;SDS011;57767;42.068;24.752;2024-01-25T02:23:27;1.48;;;0.90;;
70342;SDS011;57767;42.068;24.752;2024-01-25T02:24:29;2.67;;;1.15;;
70342;SDS011;57767;42.068;24.752;2024-01-25T02:25:31;1.33;;;1.10;;
70342;SDS011;57767;42.068;24.752;2024-01-25T02:26:32;0.90;;;0.80;;
70342;SDS011;57767;42.068;24.752;2024-01-25T02:27:34;1.02;;;0.80;;
70342;SDS011;57767;42.068;24.752;2024-01-25T02:28:40;0.73;;;0.60;;
70342;SDS011;57767;42.068;24.752;2024-01-25T02:29:42;0.80;;;0.70;;
70342;SDS011;57767;42.068;24.752;2024-01-25T02:30:43;0.70;;;0.70;;
70342;SDS011;57767;42.068;24.752;2024-01-25T02:31:45;1.30;;;0.85;;
70342;SDS011;57767;42.068;24.752;2024-01-25T02:32:46;2.70;;;0.70;;
70342;SDS011;57767;42.068;24.752;2024-01-25T02:33:48;1.02;;;0.80;;
70342;SDS011;57767;42.068;24.752;2024-01-25T02:34:51;1.55;;;0.73;;
70342;SDS011;57767;42.068;24.752;2024-01-25T02:35:52;0.98;;;0.65;;
70342;SDS011;57767;42.068;24.752;2024-01-25T02:36:54;1.13;;;0.60;;
70342;SDS011;57767;42.068;24.752;2024-01-25T02:37:56;0.82;;;0.80;;
70342;SDS011;57767;42.068;24.752;2024-01-25T02:38:58;1.05;;;1.00;;
70342;SDS011;57767;42.068;24.752;2024-01-25T02:39:59;1.00;;;0.60;;
70342;SDS011;57767;42.068;24.752;2024-01-25T02:41:01;0.70;;;0.70;;
70342;SDS011;57767;42.068;24.752;2024-01-25T02:42:03;2.17;;;1.17;;
70342;SDS011;57767;42.068;24.752;2024-01-25T02:43:04;3.25;;;1.42;;
70342;SDS011;57767;42.068;24.752;2024-01-25T02:44:06;1.15;;;0.82;;
70342;SDS011;57767;42.068;24.752;2024-01-25T02:45:08;1.65;;;0.88;;
70342;SDS011;57767;42.068;24.752;2024-01-25T02:46:10;1.45;;;0.80;;
70342;SDS011;57767;42.068;24.752;2024-01-25T02:47:11;0.70;;;0.63;;
70342;SDS011;57767;42.068;24.752;2024-01-25T02:48:13;0.70;;;0.60;;
70342;SDS011;57767;42.068;24.752;2024-01-25T02:49:16;1.42;;;0.70;;
70342;SDS011;57767;42.068;24.752;2024-01-25T02:50:18;0.55;;;0.50;;
70342;SDS011;57767;42.068;24.752;2024-01-25T02:51:20;0.85;;;0.50;;
70342;SDS011;57767;42.068;24.752;2024-01-25T02:52:21;0.60;;;0.60;;
70342;SDS011;57767;42.068;24.752;2024-01-25T02:53:23;1.88;;;0.60;;
70342;SDS011;57767;42.068;24.752;2024-01-25T02:54:25;0.63;;;0.63;;
70342;SDS011;57767;42.068;24.752;2024-01-25T02:55:26;1.08;;;0.73;;
70342;SDS011;57767;42.068;24.752;2024-01-25T02:56:29;1.40;;;0.70;;
70342;SDS011;57767;42.068;24.752;2024-01-25T02:57:36;0.77;;;0.60;;
70342;SDS011;57767;42.068;24.752;2024-01-25T02:58:37;0.82;;;0.60;;
70342;SDS011;57767;42.068;24.752;2024-01-25T02:59:39;0.60;;;0.60;;
70342;SDS011;57767;42.068;24.752;2024-01-25T03:00:40;0.50;;;0.50;;
70342;SDS011;57767;42.068;24.752;2024-01-25T03:01:43;0.55;;;0.47;;
70342;SDS011;57767;42.068;24.752;2024-01-25T03:02:46;0.65;;;0.32;;
70342;SDS011;57767;42.068;24.752;2024-01-25T03:03:47;0.75;;;0.47;;
70342;SDS011;57767;42.068;24.752;2024-01-25T03:04:49;0.45;;;0.45;;
70342;SDS011;57767;42.068;24.752;2024-01-25T03:05:51;0.50;;;0.50;;
70342;SDS011;57767;42.068;24.752;2024-01-25T03:06:53;0.73;;;0.50;;
70342;SDS011;57767;42.068;24.752;2024-01-25T03:07:55;1.58;;;1.10;;
70342;SDS011;57767;42.068;24.752;2024-01-25T03:08:56;0.70;;;0.70;;
70342;SDS011;57767;42.068;24.752;2024-01-25T03:09:58;0.70;;;0.68;;
70342;SDS011;57767;42.068;24.752;2024-01-25T03:11:00;0.50;;;0.50;;
70342;SDS011;57767;42.068;24.752;2024-01-25T03:12:01;1.00;;;0.80;;
70342;SDS011;57767;42.068;24.752;2024-01-25T03:13:03;3.85;;;0.80;;
70342;SDS011;57767;42.068;24.752;2024-01-25T03:14:05;1.00;;;0.70;;
70342;SDS011;57767;42.068;24.752;2024-01-25T03:15:07;1.10;;;0.60;;
70342;SDS011;57767;42.068;24.752;2024-01-25T03:16:10;0.52;;;0.52;;
70342;SDS011;57767;42.068;24.752;2024-01-25T03:17:12;0.70;;;0.68;;
70342;SDS011;57767;42.068;24.752;2024-01-25T03:18:13;1.40;;;1.10;;
70342;SDS011;57767;42.068;24.752;2024-01-25T03:19:15;0.57;;;0.57;;
70342;SDS011;57767;42.068;24.752;2024-01-25T03:20:17;0.70;;;0.70;;
70342;SDS011;57767;42.068;24.752;2024-01-25T03:21:19;1.80;;;0.80;;
70342;SDS011;57767;42.068;24.752;2024-01-25T03:22:20;1.08;;;0.60;;
70342;SDS011;57767;42.068;24.752;2024-01-25T03:23:23;0.60;;;0.60;;
70342;SDS011;57767;42.068;24.752;2024-01-25T03:24:25;0.80;;;0.80;;
70342;SDS011;57767;42.068;24.752;2024-01-25T03:25:26;1.00;;;0.90;;
70342;SDS011;57767;42.068;24.752;2024-01-25T03:26:28;1.92;;;1.10;;
70342;SDS011;57767;42.068;24.752;2024-01-25T03:27:30;0.95;;;0.88;;
70342;SDS011;57767;42.068;24.752;2024-01-25T03:28:33;1.88;;;1.50;;
70342;SDS011;57767;42.068;24.752;2024-01-25T03:29:36;1.63;;;1.30;;
70342;SDS011;57767;42.068;24.752;2024-01-25T03:30:37;1.75;;;1.38;;
70342;SDS011;57767;42.068;24.752;2024-01-25T03:31:39;1.23;;;1.05;;
70342;SDS011;57767;42.068;24.752;2024-01-25T03:32:41;0.80;;;0.80;;
70342;SDS011;57767;42.068;24.752;2024-01-25T03:33:42;3.03;;;0.70;;
70342;SDS011;57767;42.068;24.752;2024-01-25T03:34:44;0.77;;;0.77;;
70342;SDS011;57767;42.068;24.752;2024-01-25T03:35:46;1.15;;;0.70;;
70342;SDS011;57767;42.068;24.752;2024-01-25T03:36:48;1.15;;;0.77;;
70342;SDS011;57767;42.068;24.752;2024-01-25T03:37:51;1.23;;;0.65;;
70342;SDS011;57767;42.068;24.752;2024-01-25T03:38:52;0.60;;;0.60;;
70342;SDS011;57767;42.068;24.752;2024-01-25T03:39:54;0.73;;;0.70;;
70342;SDS011;57767;42.068;24.752;2024-01-25T03:40:56;0.60;;;0.50;;
70342;SDS011;57767;42.068;24.752;2024-01-25T03:41:59;0.80;;;0.65;;
70342;SDS011;57767;42.068;24.752;2024-01-25T03:43:01;0.98;;;0.80;;
70342;SDS011;57767;42.068;24.752;2024-01-25T03:44:19;0.70;;;0.60;;
70342;SDS011;57767;42.068;24.752;2024-01-25T03:45:20;0.40;;;0.40;;
70342;SDS011;57767;42.068;24.752;2024-01-25T03:46:22;0.70;;;0.70;;
70342;SDS011;57767;42.068;24.752;2024-01-25T03:47:24;1.05;;;0.70;;
70342;SDS011;57767;42.068;24.752;2024-01-25T03:48:26;2.00;;;0.65;;
70342;SDS011;57767;42.068;24.752;2024-01-25T03:49:27;0.88;;;0.65;;
70342;SDS011;57767;42.068;24.752;2024-01-25T03:50:29;1.35;;;0.55;;
70342;SDS011;57767;42.068;24.752;2024-01-25T03:51:31;1.02;;;0.75;;
70342;SDS011;57767;42.068;24.752;2024-01-25T03:52:32;28.92;;;10.10;;
70342;SDS011;57767;42.068;24.752;2024-01-25T03:53:34;5.28;;;2.35;;
70342;SDS011;57767;42.068;24.752;2024-01-25T03:54:36;1.83;;;1.00;;
70342;SDS011;57767;42.068;24.752;2024-01-25T03:55:38;1.13;;;0.80;;
70342;SDS011;57767;42.068;24.752;2024-01-25T03:56:40;1.08;;;0.90;;
70342;SDS011;57767;42.068;24.752;2024-01-25T03:57:42;1.85;;;0.93;;
70342;SDS011;57767;42.068;24.752;2024-01-25T03:58:44;1.20;;;1.10;;
70342;SDS011;57767;42.068;24.752;2024-01-25T03:59:46;2.65;;;1.48;;
70342;SDS011;57767;42.068;24.752;2024-01-25T04:00:48;2.40;;;1.50;;
70342;SDS011;57767;42.068;24.752;2024-01-25T04:01:49;2.33;;;1.48;;
70342;SDS011;57767;42.068;24.752;2024-01-25T04:02:51;1.35;;;1.15;;
70342;SDS011;57767;42.068;24.752;2024-01-25T04:03:53;1.05;;;1.00;;
70342;SDS011;57767;42.068;24.752;2024-01-25T04:04:55;3.72;;;1.40;;
70342;SDS011;57767;42.068;24.752;2024-01-25T04:05:56;2.22;;;1.73;;
70342;SDS011;57767;42.068;24.752;2024-01-25T04:06:58;3.25;;;1.50;;
70342;SDS011;57767;42.068;24.752;2024-01-25T04:08:00;2.15;;;1.50;;
70342;SDS011;57767;42.068;24.752;2024-01-25T04:09:01;1.95;;;1.40;;
70342;SDS011;57767;42.068;24.752;2024-01-25T04:10:03;2.10;;;1.50;;
70342;SDS011;57767;42.068;24.752;2024-01-25T04:11:05;2.55;;;1.77;;
70342;SDS011;57767;42.068;24.752;2024-01-25T04:12:07;3.25;;;2.03;;
70342;SDS011;57767;42.068;24.752;2024-01-25T04:13:08;3.80;;;2.08;;
70342;SDS011;57767;42.068;24.752;2024-01-25T04:14:10;3.65;;;1.85;;
70342;SDS011;57767;42.068;24.752;2024-01-25T04:15:12;5.75;;;2.10;;
70342;SDS011;57767;42.068;24.752;2024-01-25T04:16:14;3.72;;;2.33;;
70342;SDS011;57767;42.068;24.752;2024-01-25T04:17:15;3.28;;;2.05;;
70342;SDS011;57767;42.068;24.752;2024-01-25T04:18:17;3.05;;;2.03;;
70342;SDS011;57767;42.068;24.752;2024-01-25T04:19:19;4.85;;;1.77;;
70342;SDS011;57767;42.068;24.752;2024-01-25T04:20:21;4.00;;;2.30;;
70342;SDS011;57767;42.068;24.752;2024-01-25T04:21:23;4.78;;;2.63;;
70342;SDS011;57767;42.068;24.752;2024-01-25T04:22:25;3.72;;;2.67;;
70342;SDS011;57767;42.068;24.752;2024-01-25T04:23:26;2.72;;;2.28;;
70342;SDS011;57767;42.068;24.752;2024-01-25T04:24:28;3.10;;;2.13;;
70342;SDS011;57767;42.068;24.752;2024-01-25T04:25:30;4.30;;;2.05;;
70342;SDS011;57767;42.068;24.752;2024-01-25T04:26:34;2.92;;;1.90;;
70342;SDS011;57767;42.068;24.752;2024-01-25T04:27:39;3.08;;;1.65;;
70342;SDS011;57767;42.068;24.752;2024-01-25T04:28:41;4.03;;;1.90;;
70342;SDS011;57767;42.068;24.752;2024-01-25T04:29:42;2.53;;;1.77;;
70342;SDS011;57767;42.068;24.752;2024-01-25T04:30:44;1.80;;;1.52;;
70342;SDS011;57767;42.068;24.752;2024-01-25T04:31:46;1.80;;;1.42;;
70342;SDS011;57767;42.068;24.752;2024-01-25T04:32:49;2.22;;;1.30;;
70342;SDS011;57767;42.068;24.752;2024-01-25T04:33:51;1.40;;;1.17;;
70342;SDS011;57767;42.068;24.752;2024-01-25T04:34:53;2.30;;;1.20;;
70342;SDS011;57767;42.068;24.752;2024-01-25T04:35:55;1.10;;;0.90;;
70342;SDS011;57767;42.068;24.752;2024-01-25T04:36:57;3.97;;;1.20;;
70342;SDS011;57767;42.068;24.752;2024-01-25T04:37:58;1.50;;;1.08;;
70342;SDS011;57767;42.068;24.752;2024-01-25T04:39:00;0.90;;;0.90;;
70342;SDS011;57767;42.068;24.752;2024-01-25T04:40:02;0.80;;;0.80;;
70342;SDS011;57767;42.068;24.752;2024-01-25T04:41:04;1.15;;;1.00;;
70342;SDS011;57767;42.068;24.752;2024-01-25T04:42:07;1.02;;;0.73;;
70342;SDS011;57767;42.068;24.752;2024-01-25T04:43:09;0.93;;;0.70;;
70342;SDS011;57767;42.068;24.752;2024-01-25T04:44:10;0.93;;;0.82;;
70342;SDS011;57767;42.068;24.752;2024-01-25T04:45:12;0.95;;;0.88;;
70342;SDS011;57767;42.068;24.752;2024-01-25T04:46:14;1.30;;;1.00;;
70342;SDS011;57767;42.068;24.752;2024-01-25T04:47:16;1.30;;;0.80;;
70342;SDS011;57767;42.068;24.752;2024-01-25T04:48:17;4.65;;;0.80;;
70342;SDS011;57767;42.068;24.752;2024-01-25T04:49:19;1.00;;;0.90;;
70342;SDS011;57767;42.068;24.752;2024-01-25T04:50:20;1.23;;;1.00;;
70342;SDS011;57767;42.068;24.752;2024-01-25T04:51:22;2.80;;;1.23;;
70342;SDS011;57767;42.068;24.752;2024-01-25T04:52:24;1.63;;;1.10;;
70342;SDS011;57767;42.068;24.752;2024-01-25T04:53:26;1.48;;;1.00;;
70342;SDS011;57767;42.068;24.752;2024-01-25T04:54:28;1.80;;;1.25;;
70342;SDS011;57767;42.068;24.752;2024-01-25T04:55:30;2.20;;;1.23;;
70342;SDS011;57767;42.068;24.752;2024-01-25T04:56:31;1.15;;;1.00;;
70342;SDS011;57767;42.068;24.752;2024-01-25T04:57:33;2.15;;;1.10;;
70342;SDS011;57767;42.068;24.752;2024-01-25T04:58:35;1.35;;;1.15;;
70342;SDS011;57767;42.068;24.752;2024-01-25T04:59:36;2.08;;;1.10;;
70342;SDS011;57767;42.068;24.752;2024-01-25T05:00:38;1.70;;;1.00;;
70342;SDS011;57767;42.068;24.752;2024-01-25T05:01:41;2.33;;;1.10;;
70342;SDS011;57767;42.068;24.752;2024-01-25T05:02:43;0.88;;;0.82;;
70342;SDS011;57767;42.068;24.752;2024-01-25T05:03:44;1.08;;;0.98;;
70342;SDS011;57767;42.068;24.752;2024-01-25T05:04:46;2.63;;;1.20;;
70342;SDS011;57767;42.068;24.752;2024-01-25T05:05:48;2.00;;;1.55;;
70342;SDS011;57767;42.068;24.752;2024-01-25T05:06:50;1.40;;;1.20;;
70342;SDS011;57767;42.068;24.752;2024-01-25T05:07:52;1.77;;;1.20;;
70342;SDS011;57767;42.068;24.752;2024-01-25T05:08:53;2.58;;;1.20;;
70342;SDS011;57767;42.068;24.752;2024-01-25T05:09:55;1.70;;;1.30;;
70342;SDS011;57767;42.068;24.752;2024-01-25T05:10:57;1.15;;;0.88;;
70342;SDS011;57767;42.068;24.752;2024-01-25T05:11:58;3.15;;;1.13;;
70342;SDS011;57767;42.068;24.752;2024-01-25T05:13:03;1.33;;;1.00;;
70342;SDS011;57767;42.068;24.752;2024-01-25T05:14:05;1.45;;;1.00;;
70342;SDS011;57767;42.068;24.752;2024-01-25T05:15:07;1.23;;;1.10;;
70342;SDS011;57767;42.068;24.752;2024-01-25T05:16:09;1.52;;;1.35;;
70342;SDS011;57767;42.068;24.752;2024-01-25T05:17:11;2.25;;;1.55;;
70342;SDS011;57767;42.068;24.752;2024-01-25T05:18:12;2.17;;;1.25;;
70342;SDS011;57767;42.068;24.752;2024-01-25T05:19:14;1.88;;;1.60;;
70342;SDS011;57767;42.068;24.752;2024-01-25T05:20:16;3.83;;;1.92;;
70342;SDS011;57767;42.068;24.752;2024-01-25T05:21:19;3.42;;;1.85;;
70342;SDS011;57767;42.068;24.752;2024-01-25T05:22:21;2.30;;;1.63;;
70342;SDS011;57767;42.068;24.752;2024-01-25T05:23:23;2.83;;;1.40;;
70342;SDS011;57767;42.068;24.752;2024-01-25T05:24:25;1.75;;;1.50;;
70342;SDS011;57767;42.068;24.752;2024-01-25T05:25:27;2.92;;;2.03;;
70342;SDS011;57767;42.068;24.752;2024-01-25T05:26:29;3.05;;;1.83;;
70342;SDS011;57767;42.068;24.752;2024-01-25T05:27:31;2.10;;;1.50;;
70342;SDS011;57767;42.068;24.752;2024-01-25T05:28:33;1.50;;;1.40;;
70342;SDS011;57767;42.068;24.752;2024-01-25T05:29:34;1.40;;;1.17;;
70342;SDS011;57767;42.068;24.752;2024-01-25T05:30:36;1.45;;;1.27;;
70342;SDS011;57767;42.068;24.752;2024-01-25T05:31:38;1.48;;;1.20;;
70342;SDS011;57767;42.068;24.752;2024-01-25T05:32:39;1.67;;;1.58;;
70342;SDS011;57767;42.068;24.752;2024-01-25T05:33:41;3.00;;;2.05;;
70342;SDS011;57767;42.068;24.752;2024-01-25T05:34:44;2.28;;;1.52;;
70342;SDS011;57767;42.068;24.752;2024-01-25T05:35:46;3.67;;;2.10;;
70342;SDS011;57767;42.068;24.752;2024-01-25T05:36:48;4.45;;;2.90;;
70342;SDS011;57767;42.068;24.752;2024-01-25T05:37:49;5.95;;;3.20;;
70342;SDS011;57767;42.068;24.752;2024-01-25T05:38:51;3.80;;;2.25;;
70342;SDS011;57767;42.068;24.752;2024-01-25T05:39:53;3.08;;;2.03;;
70342;SDS011;57767;42.068;24.752;2024-01-25T05:40:54;3.45;;;1.98;;
70342;SDS011;57767;42.068;24.752;2024-01-25T05:41:56;2.95;;;1.60;;
70342;SDS011;57767;42.068;24.752;2024-01-25T05:42:58;4.93;;;1.85;;
70342;SDS011;57767;42.068;24.752;2024-01-25T05:44:01;2.42;;;1.77;;
70342;SDS011;57767;42.068;24.752;2024-01-25T05:45:02;3.05;;;2.13;;
70342;SDS011;57767;42.068;24.752;2024-01-25T05:46:04;7.28;;;2.63;;
70342;SDS011;57767;42.068;24.752;2024-01-25T05:47:06;4.45;;;2.03;;
70342;SDS011;57767;42.068;24.752;2024-01-25T05:48:08;3.90;;;2.10;;
70342;SDS011;57767;42.068;24.752;2024-01-25T05:49:10;3.10;;;2.08;;
70342;SDS011;57767;42.068;24.752;2024-01-25T05:50:12;6.75;;;2.53;;
70342;SDS011;57767;42.068;24.752;2024-01-25T05:51:14;4.93;;;1.60;;
70342;SDS011;57767;42.068;24.752;2024-01-25T05:52:15;2.13;;;1.50;;
70342;SDS011;57767;42.068;24.752;2024-01-25T05:53:17;2.33;;;1.25;;
70342;SDS011;57767;42.068;24.752;2024-01-25T05:54:21;2.58;;;1.60;;
70342;SDS011;57767;42.068;24.752;2024-01-25T05:55:22;3.15;;;1.33;;
70342;SDS011;57767;42.068;24.752;2024-01-25T05:56:24;3.05;;;1.40;;
70342;SDS011;57767;42.068;24.752;2024-01-25T05:57:26;3.22;;;2.08;;
70342;SDS011;57767;42.068;24.752;2024-01-25T05:58:29;1.67;;;1.20;;
70342;SDS011;57767;42.068;24.752;2024-01-25T05:59:31;2.47;;;1.30;;
70342;SDS011;57767;42.068;24.752;2024-01-25T06:00:32;2.88;;;1.50;;
70342;SDS011;57767;42.068;24.752;2024-01-25T06:01:35;3.42;;;1.00;;
70342;SDS011;57767;42.068;24.752;2024-01-25T06:02:37;1.90;;;1.20;;
70342;SDS011;57767;42.068;24.752;2024-01-25T06:03:38;1.17;;;1.00;;
70342;SDS011;57767;42.068;24.752;2024-01-25T06:04:40;4.07;;;1.45;;
70342;SDS011;57767;42.068;24.752;2024-01-25T06:05:42;0.90;;;0.88;;